sensor_id;sensor_type;location;lat;lon;timestamp;P1;durP1;ratioP1;P2;durP2;ratioP2
20067;SDS011;10194;50.824;7.134;2023-07-20T00:01:21;143.33;;;81.53;;
20067;SDS011;10194;50.824;7.134;2023-07-20T00:03:47;147.43;;;80.97;;
20067;SDS011;10194;50.824;7.134;2023-07-20T00:06:19;137.87;;;75.70;;
20067;SDS011;10194;50.824;7.134;2023-07-20T00:08:47;144.80;;;78.27;;
20067;SDS011;10194;50.824;7.134;2023-07-20T00:11:13;135.77;;;75.90;;
20067;SDS011;10194;50.824;7.134;2023-07-20T00:13:39;135.63;;;76.80;;
20067;SDS011;10194;50.824;7.134;2023-07-20T00:16:05;141.70;;;78.33;;
20067;SDS011;10194;50.824;7.134;2023-07-20T00:18:30;146.63;;;80.57;;
20067;SDS011;10194;50.824;7.134;2023-07-20T00:20:56;143.60;;;79.57;;
20067;SDS011;10194;50.824;7.134;2023-07-20T00:23:22;133.60;;;76.63;;
20067;SDS011;10194;50.824;7.134;2023-07-20T00:25:48;137.17;;;77.97;;
20067;SDS011;10194;50.824;7.134;2023-07-20T00:28:14;138.37;;;78.87;;
20067;SDS011;10194;50.824;7.134;2023-07-20T00:30:40;133.80;;;76.27;;
20067;SDS011;10194;50.824;7.134;2023-07-20T00:33:09;141.77;;;79.77;;
20067;SDS011;10194;50.824;7.134;2023-07-20T00:35:36;135.80;;;76.80;;
20067;SDS011;10194;50.824;7.134;2023-07-20T00:38:05;141.87;;;78.47;;
20067;SDS011;10194;50.824;7.134;2023-07-20T00:40:37;138.03;;;78.67;;
20067;SDS011;10194;50.824;7.134;2023-07-20T00:43:05;142.83;;;79.57;;
20067;SDS011;10194;50.824;7.134;2023-07-20T00:45:31;137.53;;;76.83;;
20067;SDS011;10194;50.824;7.134;2023-07-20T00:47:58;136.33;;;76.27;;
20067;SDS011;10194;50.824;7.134;2023-07-20T00:50:26;133.90;;;76.03;;
20067;SDS011;10194;50.824;7.134;2023-07-20T00:52:54;138.10;;;78.37;;
20067;SDS011;10194;50.824;7.134;2023-07-20T00:55:22;132.00;;;73.80;;
20067;SDS011;10194;50.824;7.134;2023-07-20T00:57:50;139.37;;;79.23;;
20067;SDS011;10194;50.824;7.134;2023-07-20T01:00:16;132.33;;;74.20;;
20067;SDS011;10194;50.824;7.134;2023-07-20T01:02:42;135.30;;;75.87;;
20067;SDS011;10194;50.824;7.134;2023-07-20T01:05:08;140.03;;;80.07;;
20067;SDS011;10194;50.824;7.134;2023-07-20T01:07:36;273.73;;;106.20;;
20067;SDS011;10194;50.824;7.134;2023-07-20T01:13:04;140.27;;;78.83;;
20067;SDS011;10194;50.824;7.134;2023-07-20T01:15:35;139.43;;;77.93;;
20067;SDS011;10194;50.824;7.134;2023-07-20T01:18:01;130.67;;;72.30;;
20067;SDS011;10194;50.824;7.134;2023-07-20T01:20:29;920.03;;;245.50;;
20067;SDS011;10194;50.824;7.134;2023-07-20T01:23:06;512.80;;;141.67;;
20067;SDS011;10194;50.824;7.134;2023-07-20T01:25:52;1999.90;;;999.90;;
20067;SDS011;10194;50.824;7.134;2023-07-20T01:29:00;1360.57;;;648.60;;
20067;SDS011;10194;50.824;7.134;2023-07-20T01:31:39;1724.80;;;794.50;;
20067;SDS011;10194;50.824;7.134;2023-07-20T01:34:07;1821.70;;;872.97;;
20067;SDS011;10194;50.824;7.134;2023-07-20T01:36:35;1691.73;;;963.83;;
20067;SDS011;10194;50.824;7.134;2023-07-20T01:39:03;1576.17;;;839.80;;
20067;SDS011;10194;50.824;7.134;2023-07-20T01:41:29;1650.30;;;751.20;;
20067;SDS011;10194;50.824;7.134;2023-07-20T01:43:58;1584.60;;;688.30;;
20067;SDS011;10194;50.824;7.134;2023-07-20T01:46:24;1354.47;;;732.37;;
20067;SDS011;10194;50.824;7.134;2023-07-20T01:48:50;1908.63;;;857.20;;
20067;SDS011;10194;50.824;7.134;2023-07-20T01:51:16;1999.90;;;999.90;;
20067;SDS011;10194;50.824;7.134;2023-07-20T01:53:43;1752.13;;;802.57;;
20067;SDS011;10194;50.824;7.134;2023-07-20T01:56:08;134.33;;;74.43;;
20067;SDS011;10194;50.824;7.134;2023-07-20T01:58:37;1999.90;;;999.90;;
20067;SDS011;10194;50.824;7.134;2023-07-20T02:01:03;1999.90;;;999.90;;
20067;SDS011;10194;50.824;7.134;2023-07-20T02:03:29;1999.90;;;788.27;;
20067;SDS011;10194;50.824;7.134;2023-07-20T02:05:55;1999.90;;;999.90;;
20067;SDS011;10194;50.824;7.134;2023-07-20T02:08:22;1999.90;;;976.97;;
20067;SDS011;10194;50.824;7.134;2023-07-20T02:10:48;1999.90;;;999.90;;
20067;SDS011;10194;50.824;7.134;2023-07-20T02:13:14;1999.90;;;999.90;;
20067;SDS011;10194;50.824;7.134;2023-07-20T02:15:41;1999.90;;;999.90;;
20067;SDS011;10194;50.824;7.134;2023-07-20T02:18:07;1999.90;;;999.90;;
20067;SDS011;10194;50.824;7.134;2023-07-20T02:20:34;1999.90;;;999.90;;
20067;SDS011;10194;50.824;7.134;2023-07-20T02:23:00;1999.90;;;999.90;;
20067;SDS011;10194;50.824;7.134;2023-07-20T02:25:26;1999.90;;;999.90;;
20067;SDS011;10194;50.824;7.134;2023-07-20T02:27:52;1999.90;;;999.90;;
20067;SDS011;10194;50.824;7.134;2023-07-20T02:30:18;1999.90;;;999.90;;
20067;SDS011;10194;50.824;7.134;2023-07-20T02:32:44;1999.90;;;999.90;;
20067;SDS011;10194;50.824;7.134;2023-07-20T02:35:14;1999.90;;;999.90;;
20067;SDS011;10194;50.824;7.134;2023-07-20T02:37:41;1999.90;;;999.90;;
20067;SDS011;10194;50.824;7.134;2023-07-20T02:40:07;1999.90;;;999.90;;
20067;SDS011;10194;50.824;7.134;2023-07-20T02:42:34;1999.90;;;999.90;;
20067;SDS011;10194;50.824;7.134;2023-07-20T02:45:01;1999.90;;;937.13;;
20067;SDS011;10194;50.824;7.134;2023-07-20T02:47:30;1999.90;;;954.23;;
20067;SDS011;10194;50.824;7.134;2023-07-20T02:49:56;1657.77;;;851.87;;
20067;SDS011;10194;50.824;7.134;2023-07-20T02:52:22;1587.60;;;808.53;;
20067;SDS011;10194;50.824;7.134;2023-07-20T02:54:49;1360.83;;;767.23;;
20067;SDS011;10194;50.824;7.134;2023-07-20T02:57:14;1276.10;;;717.23;;
20067;SDS011;10194;50.824;7.134;2023-07-20T02:59:40;1999.90;;;963.83;;
20067;SDS011;10194;50.824;7.134;2023-07-20T03:02:06;1999.90;;;965.07;;
20067;SDS011;10194;50.824;7.134;2023-07-20T03:04:34;1721.50;;;829.93;;
20067;SDS011;10194;50.824;7.134;2023-07-20T03:07:02;1387.03;;;769.13;;
20067;SDS011;10194;50.824;7.134;2023-07-20T03:09:29;1205.33;;;713.77;;
20067;SDS011;10194;50.824;7.134;2023-07-20T03:11:55;1077.33;;;683.57;;
20067;SDS011;10194;50.824;7.134;2023-07-20T03:14:21;1079.20;;;626.73;;
20067;SDS011;10194;50.824;7.134;2023-07-20T03:16:48;1855.77;;;894.30;;
20067;SDS011;10194;50.824;7.134;2023-07-20T03:19:14;1764.63;;;916.93;;
20067;SDS011;10194;50.824;7.134;2023-07-20T03:21:40;1654.77;;;800.27;;
20067;SDS011;10194;50.824;7.134;2023-07-20T03:24:09;1487.87;;;745.93;;
20067;SDS011;10194;50.824;7.134;2023-07-20T03:26:35;1290.67;;;669.10;;
20067;SDS011;10194;50.824;7.134;2023-07-20T03:29:02;1040.73;;;505.03;;
20067;SDS011;10194;50.824;7.134;2023-07-20T03:31:30;1102.23;;;583.60;;
20067;SDS011;10194;50.824;7.134;2023-07-20T03:33:56;845.93;;;529.90;;
20067;SDS011;10194;50.824;7.134;2023-07-20T03:36:21;1169.90;;;626.30;;
20067;SDS011;10194;50.824;7.134;2023-07-20T03:38:47;1061.30;;;611.60;;
20067;SDS011;10194;50.824;7.134;2023-07-20T03:41:13;997.23;;;627.87;;
20067;SDS011;10194;50.824;7.134;2023-07-20T03:43:41;1091.27;;;590.20;;
20067;SDS011;10194;50.824;7.134;2023-07-20T03:46:06;1459.50;;;491.30;;
20067;SDS011;10194;50.824;7.134;2023-07-20T03:48:32;1426.50;;;449.40;;
20067;SDS011;10194;50.824;7.134;2023-07-20T03:50:59;1999.90;;;773.97;;
20067;SDS011;10194;50.824;7.134;2023-07-20T03:53:25;832.90;;;489.20;;
20067;SDS011;10194;50.824;7.134;2023-07-20T03:55:51;674.03;;;407.17;;
20067;SDS011;10194;50.824;7.134;2023-07-20T03:58:18;1999.90;;;999.90;;
20067;SDS011;10194;50.824;7.134;2023-07-20T04:00:48;730.00;;;425.37;;
20067;SDS011;10194;50.824;7.134;2023-07-20T04:03:15;624.07;;;371.80;;
20067;SDS011;10194;50.824;7.134;2023-07-20T04:05:42;530.57;;;316.83;;
20067;SDS011;10194;50.824;7.134;2023-07-20T04:08:09;475.93;;;239.67;;
20067;SDS011;10194;50.824;7.134;2023-07-20T04:10:36;428.93;;;201.60;;
20067;SDS011;10194;50.824;7.134;2023-07-20T04:13:03;389.83;;;181.37;;
20067;SDS011;10194;50.824;7.134;2023-07-20T04:15:29;518.27;;;281.20;;
20067;SDS011;10194;50.824;7.134;2023-07-20T04:17:55;493.73;;;256.17;;
20067;SDS011;10194;50.824;7.134;2023-07-20T04:20:22;579.97;;;277.80;;
20067;SDS011;10194;50.824;7.134;2023-07-20T04:22:48;440.87;;;225.93;;
20067;SDS011;10194;50.824;7.134;2023-07-20T04:25:14;621.50;;;371.97;;
20067;SDS011;10194;50.824;7.134;2023-07-20T04:27:42;529.17;;;281.33;;
20067;SDS011;10194;50.824;7.134;2023-07-20T04:30:08;1999.90;;;759.73;;
20067;SDS011;10194;50.824;7.134;2023-07-20T04:32:36;1999.90;;;999.90;;
20067;SDS011;10194;50.824;7.134;2023-07-20T04:35:05;1999.90;;;999.90;;
20067;SDS011;10194;50.824;7.134;2023-07-20T04:37:33;1999.90;;;999.90;;
20067;SDS011;10194;50.824;7.134;2023-07-20T04:39:58;1999.90;;;999.90;;
20067;SDS011;10194;50.824;7.134;2023-07-20T04:42:24;1297.50;;;320.93;;
20067;SDS011;10194;50.824;7.134;2023-07-20T04:44:50;288.30;;;133.47;;
20067;SDS011;10194;50.824;7.134;2023-07-20T04:47:16;287.20;;;123.87;;
20067;SDS011;10194;50.824;7.134;2023-07-20T04:49:42;286.93;;;124.33;;
20067;SDS011;10194;50.824;7.134;2023-07-20T04:52:08;286.73;;;125.13;;
20067;SDS011;10194;50.824;7.134;2023-07-20T04:54:33;297.57;;;127.90;;
20067;SDS011;10194;50.824;7.134;2023-07-20T04:56:59;286.00;;;124.37;;
20067;SDS011;10194;50.824;7.134;2023-07-20T04:59:25;271.30;;;118.80;;
20067;SDS011;10194;50.824;7.134;2023-07-20T05:01:51;249.53;;;109.90;;
20067;SDS011;10194;50.824;7.134;2023-07-20T05:04:16;251.83;;;109.07;;
20067;SDS011;10194;50.824;7.134;2023-07-20T05:06:42;247.83;;;107.90;;
20067;SDS011;10194;50.824;7.134;2023-07-20T05:09:08;261.63;;;116.77;;
20067;SDS011;10194;50.824;7.134;2023-07-20T05:11:34;249.77;;;107.97;;
20067;SDS011;10194;50.824;7.134;2023-07-20T05:14:00;416.40;;;216.90;;
20067;SDS011;10194;50.824;7.134;2023-07-20T05:16:29;393.73;;;185.90;;
20067;SDS011;10194;50.824;7.134;2023-07-20T05:18:54;390.50;;;181.70;;
20067;SDS011;10194;50.824;7.134;2023-07-20T05:21:22;387.00;;;183.17;;
20067;SDS011;10194;50.824;7.134;2023-07-20T05:23:48;386.67;;;182.77;;
20067;SDS011;10194;50.824;7.134;2023-07-20T05:26:13;379.73;;;180.17;;
20067;SDS011;10194;50.824;7.134;2023-07-20T05:28:39;378.07;;;175.23;;
20067;SDS011;10194;50.824;7.134;2023-07-20T05:31:05;400.13;;;209.40;;
20067;SDS011;10194;50.824;7.134;2023-07-20T05:33:31;384.03;;;186.83;;
20067;SDS011;10194;50.824;7.134;2023-07-20T05:35:57;381.57;;;186.23;;
20067;SDS011;10194;50.824;7.134;2023-07-20T05:38:23;381.50;;;187.60;;
20067;SDS011;10194;50.824;7.134;2023-07-20T05:40:49;400.10;;;200.03;;
20067;SDS011;10194;50.824;7.134;2023-07-20T05:43:15;404.40;;;206.20;;
20067;SDS011;10194;50.824;7.134;2023-07-20T05:45:43;410.83;;;213.40;;
20067;SDS011;10194;50.824;7.134;2023-07-20T05:48:10;416.67;;;216.33;;
20067;SDS011;10194;50.824;7.134;2023-07-20T05:50:37;421.40;;;224.50;;
20067;SDS011;10194;50.824;7.134;2023-07-20T05:53:06;427.67;;;223.40;;
20067;SDS011;10194;50.824;7.134;2023-07-20T05:55:32;426.07;;;224.93;;
20067;SDS011;10194;50.824;7.134;2023-07-20T05:57:58;431.63;;;230.60;;
20067;SDS011;10194;50.824;7.134;2023-07-20T06:00:23;440.83;;;241.27;;
20067;SDS011;10194;50.824;7.134;2023-07-20T06:02:51;469.60;;;281.90;;
20067;SDS011;10194;50.824;7.134;2023-07-20T06:05:19;439.63;;;240.03;;
20067;SDS011;10194;50.824;7.134;2023-07-20T06:07:46;441.30;;;244.30;;
20067;SDS011;10194;50.824;7.134;2023-07-20T06:10:11;455.47;;;266.47;;
20067;SDS011;10194;50.824;7.134;2023-07-20T06:12:37;447.63;;;248.13;;
20067;SDS011;10194;50.824;7.134;2023-07-20T06:15:10;448.83;;;248.57;;
20067;SDS011;10194;50.824;7.134;2023-07-20T06:17:58;448.43;;;247.73;;
20067;SDS011;10194;50.824;7.134;2023-07-20T06:20:23;457.90;;;259.10;;
20067;SDS011;10194;50.824;7.134;2023-07-20T06:22:49;459.07;;;262.13;;
20067;SDS011;10194;50.824;7.134;2023-07-20T06:25:15;463.43;;;268.47;;
20067;SDS011;10194;50.824;7.134;2023-07-20T06:27:42;466.30;;;267.73;;
20067;SDS011;10194;50.824;7.134;2023-07-20T06:30:08;465.10;;;269.30;;
20067;SDS011;10194;50.824;7.134;2023-07-20T06:32:35;476.17;;;279.43;;
20067;SDS011;10194;50.824;7.134;2023-07-20T06:35:01;759.97;;;325.87;;
20067;SDS011;10194;50.824;7.134;2023-07-20T06:37:27;525.80;;;373.27;;
20067;SDS011;10194;50.824;7.134;2023-07-20T06:39:52;485.20;;;292.40;;
20067;SDS011;10194;50.824;7.134;2023-07-20T06:42:18;536.20;;;397.07;;
20067;SDS011;10194;50.824;7.134;2023-07-20T06:44:44;526.73;;;357.33;;
20067;SDS011;10194;50.824;7.134;2023-07-20T06:47:10;542.63;;;406.07;;
20067;SDS011;10194;50.824;7.134;2023-07-20T06:49:36;537.27;;;403.73;;
20067;SDS011;10194;50.824;7.134;2023-07-20T06:52:02;614.73;;;443.47;;
20067;SDS011;10194;50.824;7.134;2023-07-20T06:54:28;509.33;;;338.73;;
20067;SDS011;10194;50.824;7.134;2023-07-20T06:56:53;810.60;;;615.87;;
20067;SDS011;10194;50.824;7.134;2023-07-20T06:59:19;803.63;;;715.10;;
20067;SDS011;10194;50.824;7.134;2023-07-20T07:01:46;732.67;;;564.63;;
20067;SDS011;10194;50.824;7.134;2023-07-20T07:04:12;806.00;;;717.93;;
20067;SDS011;10194;50.824;7.134;2023-07-20T07:06:38;1182.27;;;972.53;;
20067;SDS011;10194;50.824;7.134;2023-07-20T07:09:03;1999.90;;;999.90;;
20067;SDS011;10194;50.824;7.134;2023-07-20T07:11:30;145.37;;;91.50;;
20067;SDS011;10194;50.824;7.134;2023-07-20T07:13:55;147.07;;;94.50;;
20067;SDS011;10194;50.824;7.134;2023-07-20T07:16:21;145.90;;;91.63;;
20067;SDS011;10194;50.824;7.134;2023-07-20T07:18:47;155.10;;;100.60;;
20067;SDS011;10194;50.824;7.134;2023-07-20T07:21:15;139.47;;;85.07;;
20067;SDS011;10194;50.824;7.134;2023-07-20T07:23:41;144.97;;;89.97;;
20067;SDS011;10194;50.824;7.134;2023-07-20T07:26:08;151.60;;;96.27;;
20067;SDS011;10194;50.824;7.134;2023-07-20T07:28:35;159.40;;;105.30;;
20067;SDS011;10194;50.824;7.134;2023-07-20T07:31:04;154.73;;;106.23;;
20067;SDS011;10194;50.824;7.134;2023-07-20T07:33:31;161.60;;;111.00;;
20067;SDS011;10194;50.824;7.134;2023-07-20T07:35:57;157.83;;;109.63;;
20067;SDS011;10194;50.824;7.134;2023-07-20T07:38:23;156.40;;;105.93;;
20067;SDS011;10194;50.824;7.134;2023-07-20T07:40:49;142.83;;;95.03;;
20067;SDS011;10194;50.824;7.134;2023-07-20T07:43:14;148.50;;;100.57;;
20067;SDS011;10194;50.824;7.134;2023-07-20T07:45:40;157.57;;;110.47;;
20067;SDS011;10194;50.824;7.134;2023-07-20T07:48:06;157.37;;;110.03;;
20067;SDS011;10194;50.824;7.134;2023-07-20T07:50:33;156.60;;;107.67;;
20067;SDS011;10194;50.824;7.134;2023-07-20T07:52:59;158.63;;;110.33;;
20067;SDS011;10194;50.824;7.134;2023-07-20T07:55:25;149.73;;;100.50;;
20067;SDS011;10194;50.824;7.134;2023-07-20T07:57:54;153.73;;;105.10;;
20067;SDS011;10194;50.824;7.134;2023-07-20T08:00:20;155.77;;;109.07;;
20067;SDS011;10194;50.824;7.134;2023-07-20T08:02:46;153.83;;;104.53;;
20067;SDS011;10194;50.824;7.134;2023-07-20T08:05:13;159.40;;;109.57;;
20067;SDS011;10194;50.824;7.134;2023-07-20T08:07:39;157.37;;;107.37;;
20067;SDS011;10194;50.824;7.134;2023-07-20T08:10:05;146.57;;;96.63;;
20067;SDS011;10194;50.824;7.134;2023-07-20T08:12:32;146.00;;;95.37;;
20067;SDS011;10194;50.824;7.134;2023-07-20T08:14:58;145.87;;;96.70;;
20067;SDS011;10194;50.824;7.134;2023-07-20T08:17:23;151.73;;;99.00;;
20067;SDS011;10194;50.824;7.134;2023-07-20T08:19:49;147.40;;;95.63;;
20067;SDS011;10194;50.824;7.134;2023-07-20T08:22:15;150.57;;;97.67;;
20067;SDS011;10194;50.824;7.134;2023-07-20T08:24:41;159.53;;;101.60;;
20067;SDS011;10194;50.824;7.134;2023-07-20T08:27:08;153.30;;;99.00;;
20067;SDS011;10194;50.824;7.134;2023-07-20T08:29:35;150.97;;;101.07;;
20067;SDS011;10194;50.824;7.134;2023-07-20T08:32:01;151.03;;;101.97;;
20067;SDS011;10194;50.824;7.134;2023-07-20T08:34:29;149.47;;;97.83;;
20067;SDS011;10194;50.824;7.134;2023-07-20T08:36:55;150.97;;;100.57;;
20067;SDS011;10194;50.824;7.134;2023-07-20T08:39:22;150.93;;;99.83;;
20067;SDS011;10194;50.824;7.134;2023-07-20T08:41:49;149.40;;;97.63;;
20067;SDS011;10194;50.824;7.134;2023-07-20T08:44:16;152.13;;;102.73;;
20067;SDS011;10194;50.824;7.134;2023-07-20T08:46:42;151.57;;;101.63;;
20067;SDS011;10194;50.824;7.134;2023-07-20T08:49:08;150.03;;;99.43;;
20067;SDS011;10194;50.824;7.134;2023-07-20T08:51:36;156.27;;;105.37;;
20067;SDS011;10194;50.824;7.134;2023-07-20T08:54:04;148.17;;;99.83;;
20067;SDS011;10194;50.824;7.134;2023-07-20T08:56:31;149.47;;;101.07;;
20067;SDS011;10194;50.824;7.134;2023-07-20T08:58:59;151.90;;;101.40;;
20067;SDS011;10194;50.824;7.134;2023-07-20T09:01:26;150.50;;;101.90;;
20067;SDS011;10194;50.824;7.134;2023-07-20T09:03:54;148.40;;;97.60;;
20067;SDS011;10194;50.824;7.134;2023-07-20T09:06:20;152.07;;;103.20;;
20067;SDS011;10194;50.824;7.134;2023-07-20T09:08:46;151.27;;;103.33;;
20067;SDS011;10194;50.824;7.134;2023-07-20T09:11:12;153.23;;;99.87;;
20067;SDS011;10194;50.824;7.134;2023-07-20T09:13:41;152.93;;;104.77;;
20067;SDS011;10194;50.824;7.134;2023-07-20T09:16:06;154.40;;;103.97;;
20067;SDS011;10194;50.824;7.134;2023-07-20T09:18:34;153.20;;;103.77;;
20067;SDS011;10194;50.824;7.134;2023-07-20T09:21:04;155.13;;;104.73;;
20067;SDS011;10194;50.824;7.134;2023-07-20T09:23:32;154.37;;;102.60;;
20067;SDS011;10194;50.824;7.134;2023-07-20T09:26:00;156.73;;;106.43;;
20067;SDS011;10194;50.824;7.134;2023-07-20T09:28:29;157.37;;;106.77;;
20067;SDS011;10194;50.824;7.134;2023-07-20T09:30:54;151.80;;;103.40;;
20067;SDS011;10194;50.824;7.134;2023-07-20T09:33:22;149.50;;;101.97;;
20067;SDS011;10194;50.824;7.134;2023-07-20T09:35:48;150.67;;;102.00;;
20067;SDS011;10194;50.824;7.134;2023-07-20T09:38:14;153.07;;;102.27;;
20067;SDS011;10194;50.824;7.134;2023-07-20T09:40:40;152.83;;;102.63;;
20067;SDS011;10194;50.824;7.134;2023-07-20T09:43:10;151.17;;;101.40;;
20067;SDS011;10194;50.824;7.134;2023-07-20T09:45:42;152.47;;;101.33;;
20067;SDS011;10194;50.824;7.134;2023-07-20T09:48:09;151.47;;;99.67;;
20067;SDS011;10194;50.824;7.134;2023-07-20T09:50:39;150.63;;;100.00;;
20067;SDS011;10194;50.824;7.134;2023-07-20T09:53:13;151.43;;;100.87;;
20067;SDS011;10194;50.824;7.134;2023-07-20T09:55:40;150.17;;;99.97;;
20067;SDS011;10194;50.824;7.134;2023-07-20T09:58:08;152.00;;;101.50;;
20067;SDS011;10194;50.824;7.134;2023-07-20T10:00:35;149.33;;;100.80;;
20067;SDS011;10194;50.824;7.134;2023-07-20T10:03:03;150.90;;;101.17;;
20067;SDS011;10194;50.824;7.134;2023-07-20T10:05:35;149.80;;;101.23;;
20067;SDS011;10194;50.824;7.134;2023-07-20T10:08:06;152.63;;;103.57;;
20067;SDS011;10194;50.824;7.134;2023-07-20T10:10:37;153.83;;;106.93;;
20067;SDS011;10194;50.824;7.134;2023-07-20T10:13:10;154.30;;;106.37;;
20067;SDS011;10194;50.824;7.134;2023-07-20T10:15:45;153.07;;;108.60;;
20067;SDS011;10194;50.824;7.134;2023-07-20T10:18:25;161.57;;;110.73;;
20067;SDS011;10194;50.824;7.134;2023-07-20T10:20:56;157.93;;;109.47;;
20067;SDS011;10194;50.824;7.134;2023-07-20T10:23:24;153.53;;;108.73;;
20067;SDS011;10194;50.824;7.134;2023-07-20T10:25:54;152.97;;;108.03;;
20067;SDS011;10194;50.824;7.134;2023-07-20T10:28:20;160.77;;;109.77;;
20067;SDS011;10194;50.824;7.134;2023-07-20T10:30:48;151.70;;;103.73;;
20067;SDS011;10194;50.824;7.134;2023-07-20T10:33:15;151.33;;;102.53;;
20067;SDS011;10194;50.824;7.134;2023-07-20T10:35:56;149.80;;;99.40;;
20067;SDS011;10194;50.824;7.134;2023-07-20T10:38:42;160.00;;;103.93;;
20067;SDS011;10194;50.824;7.134;2023-07-20T10:41:19;151.60;;;102.83;;
20067;SDS011;10194;50.824;7.134;2023-07-20T10:44:03;150.53;;;100.80;;
20067;SDS011;10194;50.824;7.134;2023-07-20T10:49:04;149.13;;;100.33;;
20067;SDS011;10194;50.824;7.134;2023-07-20T10:56:46;148.97;;;100.43;;
20067;SDS011;10194;50.824;7.134;2023-07-20T10:59:20;152.10;;;104.17;;
20067;SDS011;10194;50.824;7.134;2023-07-20T11:02:06;150.23;;;101.93;;
20067;SDS011;10194;50.824;7.134;2023-07-20T11:04:43;153.10;;;101.63;;
20067;SDS011;10194;50.824;7.134;2023-07-20T11:07:56;151.30;;;101.13;;
20067;SDS011;10194;50.824;7.134;2023-07-20T11:10:13;152.17;;;102.80;;
20067;SDS011;10194;50.824;7.134;2023-07-20T11:13:00;153.73;;;103.60;;
20067;SDS011;10194;50.824;7.134;2023-07-20T11:16:01;152.03;;;102.03;;
20067;SDS011;10194;50.824;7.134;2023-07-20T11:18:29;153.97;;;100.83;;
20067;SDS011;10194;50.824;7.134;2023-07-20T11:20:56;152.53;;;102.57;;
20067;SDS011;10194;50.824;7.134;2023-07-20T11:23:22;150.93;;;101.33;;
20067;SDS011;10194;50.824;7.134;2023-07-20T11:25:48;149.60;;;102.43;;
20067;SDS011;10194;50.824;7.134;2023-07-20T11:28:15;150.03;;;99.37;;
20067;SDS011;10194;50.824;7.134;2023-07-20T11:30:41;150.87;;;103.43;;
20067;SDS011;10194;50.824;7.134;2023-07-20T11:33:09;149.43;;;102.97;;
20067;SDS011;10194;50.824;7.134;2023-07-20T11:35:38;151.63;;;104.00;;
20067;SDS011;10194;50.824;7.134;2023-07-20T11:38:12;154.00;;;105.07;;
20067;SDS011;10194;50.824;7.134;2023-07-20T11:40:45;152.27;;;105.03;;
20067;SDS011;10194;50.824;7.134;2023-07-20T11:43:12;152.27;;;105.63;;
20067;SDS011;10194;50.824;7.134;2023-07-20T11:45:38;152.10;;;105.23;;
20067;SDS011;10194;50.824;7.134;2023-07-20T11:48:04;151.03;;;104.37;;
20067;SDS011;10194;50.824;7.134;2023-07-20T11:50:31;152.03;;;105.30;;
20067;SDS011;10194;50.824;7.134;2023-07-20T11:52:57;152.00;;;105.93;;
20067;SDS011;10194;50.824;7.134;2023-07-20T11:55:23;151.93;;;106.13;;
20067;SDS011;10194;50.824;7.134;2023-07-20T11:58:04;154.83;;;106.23;;
20067;SDS011;10194;50.824;7.134;2023-07-20T12:00:32;151.03;;;105.43;;
20067;SDS011;10194;50.824;7.134;2023-07-20T12:02:59;329.67;;;118.47;;
20067;SDS011;10194;50.824;7.134;2023-07-20T12:05:26;150.97;;;102.47;;
20067;SDS011;10194;50.824;7.134;2023-07-20T12:07:52;150.70;;;101.23;;
20067;SDS011;10194;50.824;7.134;2023-07-20T12:10:27;149.53;;;101.23;;
20067;SDS011;10194;50.824;7.134;2023-07-20T12:12:54;156.23;;;102.00;;
20067;SDS011;10194;50.824;7.134;2023-07-20T12:18:00;147.10;;;96.80;;
20067;SDS011;10194;50.824;7.134;2023-07-20T12:20:34;152.03;;;98.53;;
20067;SDS011;10194;50.824;7.134;2023-07-20T12:23:12;146.13;;;96.23;;
20067;SDS011;10194;50.824;7.134;2023-07-20T12:25:45;147.17;;;95.70;;
20067;SDS011;10194;50.824;7.134;2023-07-20T12:30:42;149.43;;;97.20;;
20067;SDS011;10194;50.824;7.134;2023-07-20T12:33:10;148.73;;;99.23;;
20067;SDS011;10194;50.824;7.134;2023-07-20T12:35:37;153.43;;;99.73;;
20067;SDS011;10194;50.824;7.134;2023-07-20T12:38:02;151.20;;;102.90;;
20067;SDS011;10194;50.824;7.134;2023-07-20T12:40:28;151.37;;;102.90;;
20067;SDS011;10194;50.824;7.134;2023-07-20T12:42:54;156.50;;;105.27;;
20067;SDS011;10194;50.824;7.134;2023-07-20T12:45:20;150.43;;;103.30;;
20067;SDS011;10194;50.824;7.134;2023-07-20T12:47:46;151.20;;;104.60;;
20067;SDS011;10194;50.824;7.134;2023-07-20T12:50:13;154.43;;;106.07;;
20067;SDS011;10194;50.824;7.134;2023-07-20T12:52:39;151.37;;;105.17;;
20067;SDS011;10194;50.824;7.134;2023-07-20T12:55:09;153.43;;;105.77;;
20067;SDS011;10194;50.824;7.134;2023-07-20T12:57:35;150.70;;;104.50;;
20067;SDS011;10194;50.824;7.134;2023-07-20T13:00:03;151.90;;;104.27;;
20067;SDS011;10194;50.824;7.134;2023-07-20T13:02:33;156.60;;;105.33;;
20067;SDS011;10194;50.824;7.134;2023-07-20T13:04:58;151.30;;;104.40;;
20067;SDS011;10194;50.824;7.134;2023-07-20T13:07:31;151.90;;;104.00;;
20067;SDS011;10194;50.824;7.134;2023-07-20T13:10:02;153.27;;;101.73;;
20067;SDS011;10194;50.824;7.134;2023-07-20T13:12:29;154.07;;;103.67;;
20067;SDS011;10194;50.824;7.134;2023-07-20T13:14:56;149.77;;;101.77;;
20067;SDS011;10194;50.824;7.134;2023-07-20T13:17:25;153.50;;;102.90;;
20067;SDS011;10194;50.824;7.134;2023-07-20T13:19:52;149.53;;;101.77;;
20067;SDS011;10194;50.824;7.134;2023-07-20T13:22:18;150.37;;;100.13;;
20067;SDS011;10194;50.824;7.134;2023-07-20T13:24:45;148.57;;;99.67;;
20067;SDS011;10194;50.824;7.134;2023-07-20T13:27:13;147.97;;;98.00;;
20067;SDS011;10194;50.824;7.134;2023-07-20T13:29:43;147.90;;;95.50;;
20067;SDS011;10194;50.824;7.134;2023-07-20T13:32:09;148.07;;;97.43;;
20067;SDS011;10194;50.824;7.134;2023-07-20T13:34:37;149.10;;;97.03;;
20067;SDS011;10194;50.824;7.134;2023-07-20T13:37:03;147.23;;;95.77;;
20067;SDS011;10194;50.824;7.134;2023-07-20T13:39:30;147.93;;;97.30;;
20067;SDS011;10194;50.824;7.134;2023-07-20T13:41:55;154.53;;;101.50;;
20067;SDS011;10194;50.824;7.134;2023-07-20T13:44:21;151.60;;;99.97;;
20067;SDS011;10194;50.824;7.134;2023-07-20T13:46:47;159.23;;;105.43;;
20067;SDS011;10194;50.824;7.134;2023-07-20T13:49:14;158.47;;;103.60;;
20067;SDS011;10194;50.824;7.134;2023-07-20T13:51:40;150.63;;;99.80;;
20067;SDS011;10194;50.824;7.134;2023-07-20T13:54:07;157.40;;;104.37;;
20067;SDS011;10194;50.824;7.134;2023-07-20T13:56:33;153.50;;;104.37;;
20067;SDS011;10194;50.824;7.134;2023-07-20T13:59:00;153.10;;;101.53;;
20067;SDS011;10194;50.824;7.134;2023-07-20T14:01:26;152.97;;;102.03;;
20067;SDS011;10194;50.824;7.134;2023-07-20T14:03:53;150.93;;;100.97;;
20067;SDS011;10194;50.824;7.134;2023-07-20T14:06:20;151.87;;;98.50;;
20067;SDS011;10194;50.824;7.134;2023-07-20T14:08:46;148.90;;;98.53;;
20067;SDS011;10194;50.824;7.134;2023-07-20T14:11:12;152.00;;;98.47;;
20067;SDS011;10194;50.824;7.134;2023-07-20T14:13:38;152.27;;;99.13;;
20067;SDS011;10194;50.824;7.134;2023-07-20T14:16:04;148.30;;;97.70;;